Time;durP1;ratioP1;P1;durP2;ratioP2;P2;SDS_P1;SDS_P2;PMS_P1;PMS_P2;Temp;Humidity;BMP_temperature;BMP_pressure;BME280_temperature;BME280_humidity;BME280_pressure;Samples;Min_cycle;Max_cycle;Signal;HPM_P1;HPM_P2
2022/09/14 00:00:05;;;;;;;1.70;0.35;;;;;22.70;100779.00;;;;5075277;28;20210;-77
2022/09/14 00:02:33;;;;;;;4.80;0.50;;;;;22.70;100780.00;;;;5079082;28;20374;-77
2022/09/14 00:05:01;;;;;;;2.22;0.85;;;;;22.70;100780.00;;;;5069895;28;20199;-77
2022/09/14 00:07:28;;;;;;;2.72;0.80;;;;;22.60;100775.00;;;;5071170;28;20592;-77
2022/09/14 00:09:55;;;;;;;3.10;0.82;;;;;22.60;100772.00;;;;5066902;28;20218;-77
2022/09/14 00:12:23;;;;;;;2.58;0.80;;;;;22.60;100774.00;;;;5084709;28;20198;-77
2022/09/14 00:14:51;;;;;;;1.33;0.82;;;;;22.60;100775.00;;;;5080148;28;20187;-77
2022/09/14 00:17:18;;;;;;;3.80;0.80;;;;;22.60;100768.00;;;;5075452;28;20203;-77
2022/09/14 00:19:46;;;;;;;2.88;1.00;;;;;22.60;100771.00;;;;5076379;28;20221;-77
2022/09/14 00:22:14;;;;;;;1.95;0.80;;;;;22.60;100771.00;;;;5086535;28;20194;-77
2022/09/14 00:24:41;;;;;;;3.60;0.80;;;;;22.60;100760.00;;;;5073881;28;20199;-77
2022/09/14 00:27:09;;;;;;;3.70;0.85;;;;;22.60;100752.00;;;;5072733;28;20608;-77
2022/09/14 00:29:36;;;;;;;4.45;1.10;;;;;22.50;100754.00;;;;5089664;28;20680;-77
2022/09/14 00:32:04;;;;;;;3.58;1.10;;;;;22.50;100747.00;;;;5090405;28;20198;-77
2022/09/14 00:34:31;;;;;;;2.72;0.80;;;;;22.50;100750.00;;;;5073558;28;20221;-77
2022/09/14 00:37:03;;;;;;;2.22;0.75;;;;;22.40;100745.00;;;;5070966;28;20210;-77
2022/09/14 00:39:30;;;;;;;1.90;0.90;;;;;22.50;100739.00;;;;5069968;28;20221;-77
2022/09/14 00:41:57;;;;;;;2.13;0.70;;;;;22.50;100740.00;;;;5073209;28;20198;-77
2022/09/14 00:45:00;;;;;;;2.65;0.82;;;;;22.30;100740.00;;;;5079010;28;20229;-77
2022/09/14 00:47:30;;;;;;;2.17;0.77;;;;;22.40;100731.00;;;;5087886;28;20660;-76
2022/09/14 00:49:59;;;;;;;3.03;1.00;;;;;22.40;100720.00;;;;5081431;28;20202;-77
2022/09/14 00:52:31;;;;;;;2.05;0.90;;;;;22.40;100722.00;;;;5090566;28;20240;-77
2022/09/14 00:55:01;;;;;;;3.38;0.80;;;;;22.40;100714.00;;;;5089704;28;20209;-77
2022/09/14 00:57:34;;;;;;;2.35;0.77;;;;;22.40;100712.00;;;;5090080;28;20194;-77
2022/09/14 01:00:01;;;;;;;1.67;0.68;;;;;22.40;100718.00;;;;5086749;28;20672;-77
2022/09/14 01:02:29;;;;;;;2.83;0.88;;;;;22.40;100709.00;;;;5075221;28;20596;-77
2022/09/14 01:04:57;;;;;;;1.00;0.80;;;;;22.40;100711.00;;;;5069350;28;20195;-77
2022/09/14 01:07:40;;;;;;;2.88;0.88;;;;;22.30;100713.00;;;;5070727;28;20664;-77
2022/09/14 01:10:19;;;;;;;1.90;1.23;;;;;22.30;100706.00;;;;5070635;28;20238;-77
2022/09/14 01:12:54;;;;;;;1.42;0.75;;;;;22.30;100693.00;;;;5069424;28;20649;-77
2022/09/14 01:15:27;;;;;;;3.35;1.30;;;;;22.30;100690.00;;;;5069683;28;20679;-77
2022/09/14 01:18:00;;;;;;;3.10;1.60;;;;;22.30;100699.00;;;;5075087;28;20198;-77
2022/09/14 01:20:33;;;;;;;3.47;1.00;;;;;22.30;100697.00;;;;5081300;28;20680;-77
2022/09/14 01:23:13;;;;;;;2.60;1.00;;;;;22.20;100693.00;;;;5073869;28;20233;-77
2022/09/14 01:26:11;;;;;;;3.38;1.15;;;;;22.20;100691.00;;;;5070264;28;20199;-77
2022/09/14 01:28:43;;;;;;;2.78;1.30;;;;;22.30;100686.00;;;;5085108;28;20236;-77
2022/09/14 01:31:16;;;;;;;4.03;1.27;;;;;22.30;100683.00;;;;5081594;28;20202;-77
2022/09/14 01:33:51;;;;;;;3.28;1.08;;;;;22.30;100682.00;;;;5081367;28;20222;-77
2022/09/14 01:36:20;;;;;;;2.20;1.23;;;;;22.30;100682.00;;;;5080544;28;20197;-77
2022/09/14 01:38:51;;;;;;;1.67;1.13;;;;;22.30;100680.00;;;;5089999;28;20216;-77
2022/09/14 01:41:24;;;;;;;4.40;1.45;;;;;22.30;100684.00;;;;5077276;28;20206;-77
2022/09/14 01:43:56;;;;;;;2.45;1.58;;;;;22.20;100676.00;;;;5069920;28;20234;-77
2022/09/14 01:46:30;;;;;;;5.03;1.73;;;;;22.20;100673.00;;;;5071395;28;20195;-77
2022/09/14 01:49:02;;;;;;;5.60;1.60;;;;;22.20;100666.00;;;;5071916;28;20198;-77
2022/09/14 01:51:35;;;;;;;4.05;1.73;;;;;22.20;100674.00;;;;5077858;28;20207;-77
2022/09/14 01:54:07;;;;;;;1.55;1.02;;;;;22.20;100672.00;;;;5085406;28;20655;-77
2022/09/14 01:56:40;;;;;;;1.55;1.08;;;;;22.20;100672.00;;;;5069374;28;20572;-77
2022/09/14 01:59:14;;;;;;;3.05;1.30;;;;;22.20;100676.00;;;;5069128;28;20280;-77
2022/09/14 02:01:45;;;;;;;1.17;1.05;;;;;22.20;100669.00;;;;5071069;28;20205;-77
2022/09/14 02:04:16;;;;;;;3.30;1.27;;;;;22.20;100664.00;;;;5069595;28;20222;-77
2022/09/14 02:06:46;;;;;;;1.60;1.30;;;;;22.20;100662.00;;;;5068417;28;20199;-77
2022/09/14 02:09:19;;;;;;;3.38;1.83;;;;;22.20;100659.00;;;;5068911;28;20195;-77
2022/09/14 02:11:47;;;;;;;3.15;0.98;;;;;22.20;100655.00;;;;5084722;28;20205;-77
2022/09/14 02:14:15;;;;;;;1.58;1.10;;;;;22.20;100655.00;;;;5088395;28;20191;-77
2022/09/14 02:16:45;;;;;;;2.63;1.02;;;;;22.20;100652.00;;;;5088599;28;20960;-77
2022/09/14 02:19:12;;;;;;;6.43;1.45;;;;;22.20;100660.00;;;;5086814;28;20229;-77
2022/09/14 02:21:40;;;;;;;1.27;1.13;;;;;22.20;100646.00;;;;5084541;28;20194;-77
2022/09/14 02:24:08;;;;;;;1.75;1.08;;;;;22.20;100648.00;;;;5088362;28;20222;-77
2022/09/14 02:26:36;;;;;;;5.63;2.25;;;;;22.20;100644.00;;;;5088502;28;20206;-77
2022/09/14 02:29:03;;;;;;;4.20;1.20;;;;;22.20;100646.00;;;;5071298;28;20230;-77
2022/09/14 02:31:43;;;;;;;3.17;1.13;;;;;22.10;100642.00;;;;5072883;28;20302;-77
2022/09/14 02:34:17;;;;;;;3.67;1.30;;;;;22.10;100643.00;;;;5068880;28;20218;-77
2022/09/14 02:36:52;;;;;;;3.10;1.48;;;;;22.10;100643.00;;;;5068431;28;20277;-77
2022/09/14 02:39:27;;;;;;;1.55;1.08;;;;;22.10;100636.00;;;;5076520;28;20198;-77
2022/09/14 02:42:11;;;;;;;1.70;1.05;;;;;22.10;100633.00;;;;5083201;28;20204;-77
2022/09/14 02:44:48;;;;;;;1.15;0.95;;;;;22.10;100631.00;;;;5077660;28;20215;-77
2022/09/14 02:47:26;;;;;;;3.15;1.30;;;;;22.10;100632.00;;;;5072631;28;20200;-77
2022/09/14 02:50:03;;;;;;;2.65;1.50;;;;;22.10;100625.00;;;;5067687;28;20195;-77
2022/09/14 02:52:47;;;;;;;1.98;1.33;;;;;22.10;100621.00;;;;5068878;28;20214;-77
2022/09/14 02:55:18;;;;;;;4.20;1.67;;;;;22.10;100628.00;;;;5068551;28;20199;-77
2022/09/14 02:58:04;;;;;;;2.03;1.15;;;;;22.00;100615.00;;;;5068318;28;20194;-77
2022/09/14 03:00:35;;;;;;;6.07;1.42;;;;;22.10;100614.00;;;;5073538;28;20194;-77
2022/09/14 03:03:04;;;;;;;2.08;1.10;;;;;22.10;100606.00;;;;5080043;28;20680;-77
2022/09/14 03:05:32;;;;;;;3.50;1.27;;;;;22.10;100607.00;;;;5087512;28;20587;-77
2022/09/14 03:08:00;;;;;;;2.38;1.08;;;;;22.10;100606.00;;;;5086369;28;20198;-77
2022/09/14 03:10:27;;;;;;;3.13;1.17;;;;;22.10;100609.00;;;;5070547;28;20206;-77
2022/09/14 03:12:55;;;;;;;2.45;1.10;;;;;22.10;100613.00;;;;5070115;28;20845;-77
2022/09/14 03:15:22;;;;;;;3.00;1.48;;;;;22.10;100613.00;;;;5082155;28;20209;-77
2022/09/14 03:17:51;;;;;;;3.38;1.30;;;;;22.10;100614.00;;;;5086509;28;20747;-77
2022/09/14 03:20:21;;;;;;;1.92;1.00;;;;;22.00;100610.00;;;;5069958;28;20190;-77
2022/09/14 03:22:49;;;;;;;2.65;1.27;;;;;22.10;100604.00;;;;5072559;28;20685;-77
2022/09/14 03:25:17;;;;;;;2.63;1.27;;;;;22.10;100604.00;;;;5066962;28;20599;-77
2022/09/14 03:27:49;;;;;;;2.55;1.20;;;;;22.00;100600.00;;;;5067661;28;20253;-77
2022/09/14 03:30:16;;;;;;;3.72;1.15;;;;;22.00;100600.00;;;;5067817;28;20235;-77
2022/09/14 03:32:44;;;;;;;2.78;1.42;;;;;22.00;100600.00;;;;5086575;28;20198;-77
2022/09/14 03:35:11;;;;;;;2.10;1.00;;;;;22.00;100598.00;;;;5087344;28;20562;-77
2022/09/14 03:37:42;;;;;;;2.72;1.10;;;;;22.00;100594.00;;;;5067474;28;20206;-77
2022/09/14 03:40:11;;;;;;;3.28;1.30;;;;;22.00;100592.00;;;;5077067;28;20206;-77
2022/09/14 03:42:42;;;;;;;3.10;1.30;;;;;22.00;100583.00;;;;5086502;28;20568;-78
2022/09/14 03:45:11;;;;;;;2.72;1.30;;;;;22.00;100577.00;;;;5086775;28;20321;-77
2022/09/14 03:47:38;;;;;;;1.60;1.23;;;;;22.00;100577.00;;;;5071927;28;20606;-77
2022/09/14 03:50:06;;;;;;;3.22;1.67;;;;;22.00;100577.00;;;;5077317;28;20251;-77
2022/09/14 03:52:34;;;;;;;2.47;1.33;;;;;22.00;100576.00;;;;5075762;28;20206;-77
2022/09/14 03:55:04;;;;;;;2.42;1.20;;;;;22.00;100579.00;;;;5075659;28;20209;-77
2022/09/14 03:57:31;;;;;;;3.47;1.25;;;;;22.00;100561.00;;;;5078914;28;20190;-77
2022/09/14 03:59:58;;;;;;;1.85;1.20;;;;;21.90;100575.00;;;;5075098;28;20294;-77
2022/09/14 04:02:27;;;;;;;5.85;1.52;;;;;21.90;100572.00;;;;5075374;28;20233;-77
2022/09/14 04:04:55;;;;;;;3.13;1.05;;;;;21.90;100571.00;;;;5077571;28;20850;-77
2022/09/14 04:07:22;;;;;;;4.43;1.80;;;;;21.90;100573.00;;;;5072574;28;20199;-77
2022/09/14 04:09:49;;;;;;;3.47;1.60;;;;;21.90;100569.00;;;;5085803;28;20209;-77
2022/09/14 04:12:18;;;;;;;3.90;1.50;;;;;21.90;100564.00;;;;5090039;28;20190;-77
2022/09/14 04:14:45;;;;;;;4.43;1.40;;;;;21.90;100553.00;;;;5072120;28;20789;-76
2022/09/14 04:17:12;;;;;;;3.28;1.90;;;;;21.80;100547.00;;;;5082330;28;20198;-77
2022/09/14 04:19:41;;;;;;;2.03;1.30;;;;;21.80;100543.00;;;;5090079;28;20198;-77
2022/09/14 04:22:08;;;;;;;3.80;1.52;;;;;21.80;100541.00;;;;5085675;28;20240;-77
2022/09/14 04:24:36;;;;;;;4.90;2.17;;;;;21.80;100545.00;;;;5082987;28;20226;-77
2022/09/14 04:27:03;;;;;;;2.42;1.40;;;;;21.80;100544.00;;;;5079543;28;20221;-77
2022/09/14 04:29:32;;;;;;;1.70;1.17;;;;;21.80;100547.00;;;;5077148;28;20225;-77
2022/09/14 04:31:59;;;;;;;1.77;1.20;;;;;21.80;100552.00;;;;5075505;28;20211;-76
2022/09/14 04:34:26;;;;;;;1.55;1.13;;;;;21.70;100556.00;;;;5082231;28;20923;-77
2022/09/14 04:36:54;;;;;;;3.20;1.60;;;;;21.70;100550.00;;;;5081441;28;20209;-77
2022/09/14 04:39:21;;;;;;;4.03;1.38;;;;;21.70;100559.00;;;;5078390;28;20290;-77
2022/09/14 04:41:48;;;;;;;4.63;1.27;;;;;21.70;100557.00;;;;5079057;28;20652;-76
2022/09/14 04:44:16;;;;;;;2.17;1.38;;;;;21.70;100554.00;;;;5086940;28;20222;-77
2022/09/14 04:46:44;;;;;;;1.83;1.30;;;;;21.70;100563.00;;;;5073672;28;20217;-77
2022/09/14 04:49:12;;;;;;;1.45;1.23;;;;;21.70;100557.00;;;;5079408;28;20209;-77
2022/09/14 04:51:39;;;;;;;4.93;1.10;;;;;21.70;100557.00;;;;5086480;28;20199;-77
2022/09/14 04:54:07;;;;;;;1.77;1.40;;;;;21.70;100542.00;;;;5077326;28;20656;-77
2022/09/14 04:56:36;;;;;;;6.43;1.73;;;;;21.60;100541.00;;;;5077502;28;20210;-77
2022/09/14 04:59:04;;;;;;;4.28;1.23;;;;;21.60;100547.00;;;;5071903;28;20279;-77
2022/09/14 05:01:34;;;;;;;2.70;1.33;;;;;21.60;100543.00;;;;5085162;28;20584;-78
2022/09/14 05:04:03;;;;;;;1.52;1.15;;;;;21.60;100547.00;;;;5069360;28;20342;-77
2022/09/14 05:06:32;;;;;;;3.63;1.60;;;;;21.60;100545.00;;;;5078465;28;20691;-78
2022/09/14 05:09:01;;;;;;;3.42;1.25;;;;;21.60;100542.00;;;;5072859;28;20199;-78
2022/09/14 05:11:30;;;;;;;1.77;1.02;;;;;21.60;100536.00;;;;5087109;28;21016;-78
2022/09/14 05:13:59;;;;;;;3.30;1.60;;;;;21.60;100541.00;;;;5070519;28;20203;-77
2022/09/14 05:16:28;;;;;;;2.63;1.50;;;;;21.60;100544.00;;;;5086248;28;20202;-77
2022/09/14 05:19:00;;;;;;;3.28;1.23;;;;;21.60;100543.00;;;;5078835;28;20213;-77
2022/09/14 05:21:30;;;;;;;2.53;1.58;;;;;21.50;100540.00;;;;5076427;28;20202;-77
2022/09/14 05:23:59;;;;;;;2.22;1.20;;;;;21.50;100546.00;;;;5078083;28;20551;-79
2022/09/14 05:26:28;;;;;;;14.38;2.15;;;;;21.50;100555.00;;;;5074433;28;20209;-79
2022/09/14 05:28:58;;;;;;;4.88;1.30;;;;;21.50;100555.00;;;;5083072;28;20226;-78
2022/09/14 05:31:27;;;;;;;2.25;1.33;;;;;21.50;100549.00;;;;5068909;28;20194;-79
2022/09/14 05:33:54;;;;;;;1.85;1.10;;;;;21.50;100553.00;;;;5081460;28;20958;-80
2022/09/14 05:36:22;;;;;;;3.65;1.00;;;;;21.60;100558.00;;;;5079402;28;20206;-80
2022/09/14 05:38:51;;;;;;;3.55;1.27;;;;;21.50;100552.00;;;;5073464;28;20257;-78
2022/09/14 05:41:19;;;;;;;2.42;1.15;;;;;21.60;100553.00;;;;5078420;28;20198;-78
2022/09/14 05:43:46;;;;;;;1.95;1.13;;;;;21.50;100553.00;;;;5077035;28;20217;-78
2022/09/14 05:46:15;;;;;;;2.13;1.10;;;;;21.50;100546.00;;;;5078663;28;20214;-79
2022/09/14 05:48:43;;;;;;;2.85;1.27;;;;;21.50;100542.00;;;;5078400;28;20203;-79
2022/09/14 05:56:25;;;;;;;2.30;1.42;;;;;21.50;100548.00;;;;4675877;22;20236;-77
2022/09/14 05:58:53;;;;;;;1.75;1.05;;;;;21.60;100550.00;;;;5024692;28;20211;-78
2022/09/14 06:01:22;;;;;;;2.92;0.93;;;;;21.50;100549.00;;;;5024661;28;20339;-78
2022/09/14 06:03:52;;;;;;;4.28;1.40;;;;;21.60;100556.00;;;;5039360;28;20246;-76
2022/09/14 06:06:20;;;;;;;1.17;0.90;;;;;21.60;100552.00;;;;5023464;28;20227;-77
2022/09/14 06:08:51;;;;;;;2.67;1.00;;;;;21.50;100551.00;;;;5025198;28;20212;-77
2022/09/14 06:11:20;;;;;;;2.90;1.20;;;;;21.50;100555.00;;;;5028479;28;20196;-76
2022/09/14 06:13:49;;;;;;;1.63;1.33;;;;;21.50;100544.00;;;;5028337;28;20200;-76
2022/09/14 06:16:19;;;;;;;1.70;1.10;;;;;21.50;100548.00;;;;5028825;28;20205;-76
2022/09/14 06:18:47;;;;;;;3.55;1.38;;;;;21.60;100559.00;;;;5027485;28;20200;-76
2022/09/14 06:21:18;;;;;;;3.72;1.23;;;;;21.60;100552.00;;;;5029627;28;20212;-76
2022/09/14 06:23:46;;;;;;;1.88;0.95;;;;;21.60;100561.00;;;;5027924;28;20196;-76
2022/09/14 06:26:13;;;;;;;3.65;1.52;;;;;21.60;100558.00;;;;5010631;28;20260;-76
2022/09/14 06:28:41;;;;;;;2.28;1.00;;;;;21.60;100552.00;;;;5023772;28;20201;-76
2022/09/14 06:31:13;;;;;;;2.25;1.00;;;;;21.50;100553.00;;;;5028170;28;20197;-76
2022/09/14 06:33:44;;;;;;;1.45;0.85;;;;;21.60;100549.00;;;;5028610;28;20204;-76
2022/09/14 06:36:13;;;;;;;3.45;1.25;;;;;21.60;100554.00;;;;5028784;28;20306;-76
2022/09/14 06:38:41;;;;;;;2.33;1.50;;;;;21.60;100553.00;;;;5028880;28;20196;-76
2022/09/14 06:41:11;;;;;;;1.55;1.33;;;;;21.70;100549.00;;;;5026853;28;20200;-76
2022/09/14 06:43:40;;;;;;;1.83;1.50;;;;;21.70;100558.00;;;;5021129;28;20196;-76
2022/09/14 06:46:11;;;;;;;2.60;1.60;;;;;21.70;100551.00;;;;5028952;28;20243;-76
2022/09/14 06:48:40;;;;;;;2.78;1.23;;;;;21.70;100554.00;;;;5026549;28;20265;-76
2022/09/14 06:51:16;;;;;;;2.03;1.17;;;;;21.60;100549.00;;;;5027560;28;20200;-76
2022/09/14 06:53:44;;;;;;;1.48;1.13;;;;;21.70;100551.00;;;;5028074;28;20200;-76
2022/09/14 06:56:11;;;;;;;2.45;1.40;;;;;21.70;100549.00;;;;5014263;28;20726;-76
2022/09/14 06:58:40;;;;;;;1.75;1.02;;;;;21.80;100546.00;;;;5002678;28;20229;-75
2022/09/14 07:01:10;;;;;;;2.58;1.40;;;;;21.80;100545.00;;;;5003546;28;20211;-76
2022/09/14 07:03:40;;;;;;;1.27;1.05;;;;;21.80;100552.00;;;;5017546;28;20195;-76
2022/09/14 07:06:09;;;;;;;3.53;1.30;;;;;21.80;100545.00;;;;5015038;28;20221;-76
2022/09/14 07:08:38;;;;;;;3.40;1.20;;;;;21.80;100539.00;;;;5019972;28;20232;-76
2022/09/14 07:11:06;;;;;;;4.63;1.13;;;;;21.90;100535.00;;;;5012619;28;20259;-75
2022/09/14 07:13:34;;;;;;;5.45;1.60;;;;;21.90;100545.00;;;;5008697;28;20189;-75
2022/09/14 07:16:03;;;;;;;5.15;1.25;;;;;21.90;100538.00;;;;5009958;28;20201;-76
2022/09/14 07:18:31;;;;;;;2.25;1.40;;;;;21.90;100533.00;;;;5007471;28;20197;-78
2022/09/14 07:21:03;;;;;;;3.20;1.55;;;;;21.90;100526.00;;;;5007818;28;20201;-77
2022/09/14 07:23:31;;;;;;;2.95;1.10;;;;;22.00;100534.00;;;;5008899;28;20209;-77
2022/09/14 07:26:03;;;;;;;4.18;1.35;;;;;21.90;100537.00;;;;5010874;28;20224;-77
2022/09/14 07:28:31;;;;;;;1.38;1.00;;;;;22.00;100536.00;;;;5004139;28;20233;-77
2022/09/14 07:30:59;;;;;;;1.15;0.80;;;;;22.00;100532.00;;;;5009944;28;20204;-77
2022/09/14 07:33:26;;;;;;;1.48;0.90;;;;;22.00;100528.00;;;;5006375;28;20204;-78
2022/09/14 07:35:53;;;;;;;1.25;0.90;;;;;22.00;100527.00;;;;5009912;28;20197;-75
2022/09/14 07:38:22;;;;;;;1.95;1.00;;;;;22.00;100529.00;;;;5012423;28;20208;-75
2022/09/14 07:40:49;;;;;;;3.65;0.95;;;;;22.00;100539.00;;;;5011722;28;20204;-76
2022/09/14 07:43:16;;;;;;;2.17;0.80;;;;;22.00;100535.00;;;;5012016;28;20212;-75
2022/09/14 07:45:44;;;;;;;2.63;1.23;;;;;22.10;100538.00;;;;5011235;28;20228;-75
2022/09/14 07:48:11;;;;;;;1.02;0.93;;;;;22.10;100526.00;;;;5011595;28;20212;-77
2022/09/14 07:50:38;;;;;;;1.75;1.05;;;;;22.10;100523.00;;;;5011008;28;20201;-77
2022/09/14 07:53:06;;;;;;;4.00;1.60;;;;;22.10;100521.00;;;;5010936;28;20212;-78
2022/09/14 07:55:37;;;;;;;2.65;0.80;;;;;22.10;100524.00;;;;5010458;28;20220;-77
2022/09/14 07:58:05;;;;;;;2.15;1.00;;;;;22.10;100526.00;;;;5008527;28;20308;-76
2022/09/14 08:00:32;;;;;;;2.85;0.80;;;;;22.10;100532.00;;;;5011202;28;20572;-78
2022/09/14 08:03:00;;;;;;;2.75;0.82;;;;;22.10;100533.00;;;;5009587;28;20232;-77
2022/09/14 08:05:28;;;;;;;9.25;1.40;;;;;22.10;100537.00;;;;5008954;28;20228;-77
2022/09/14 08:07:56;;;;;;;2.78;0.98;;;;;22.10;100538.00;;;;5007989;28;20208;-77
2022/09/14 08:10:24;;;;;;;3.35;0.85;;;;;22.10;100534.00;;;;5010727;28;20201;-77
2022/09/14 08:12:55;;;;;;;1.63;1.00;;;;;22.10;100528.00;;;;5022801;28;20205;-77
2022/09/14 08:15:26;;;;;;;1.85;0.47;;;;;22.10;100523.00;;;;5017209;28;22564;-77
2022/09/14 08:17:53;;;;;;;3.25;0.85;;;;;22.20;100518.00;;;;5011082;28;20207;-77
2022/09/14 08:20:21;;;;;;;1.90;0.88;;;;;22.20;100518.00;;;;5010180;28;20193;-77
2022/09/14 08:22:48;;;;;;;1.27;0.50;;;;;22.20;100525.00;;;;5010204;28;20240;-75
2022/09/14 08:25:15;;;;;;;1.13;0.65;;;;;22.20;100524.00;;;;5005033;28;20721;-74
2022/09/14 08:27:43;;;;;;;3.45;0.80;;;;;22.20;100530.00;;;;5008672;28;20585;-75
2022/09/14 08:30:12;;;;;;;1.42;0.68;;;;;22.20;100531.00;;;;5008749;28;20209;-75
2022/09/14 08:32:40;;;;;;;6.70;1.27;;;;;22.30;100525.00;;;;5010790;28;20192;-76
2022/09/14 08:35:09;;;;;;;1.98;0.80;;;;;22.30;100522.00;;;;5008731;28;20224;-76
2022/09/14 08:37:36;;;;;;;2.47;0.85;;;;;22.30;100519.00;;;;5007534;28;20205;-76
2022/09/14 08:40:04;;;;;;;0.88;0.70;;;;;22.30;100520.00;;;;5009334;28;20193;-76
2022/09/14 08:42:32;;;;;;;5.03;0.95;;;;;22.30;100519.00;;;;5010333;28;20259;-76
2022/09/14 08:45:02;;;;;;;1.35;1.00;;;;;22.30;100508.00;;;;5005440;28;20216;-76
2022/09/14 08:47:35;;;;;;;2.58;0.70;;;;;22.30;100509.00;;;;5006967;28;20196;-76
2022/09/14 08:50:06;;;;;;;2.25;0.98;;;;;22.30;100506.00;;;;5005243;28;20197;-75
2022/09/14 08:52:36;;;;;;;2.35;0.90;;;;;22.30;100504.00;;;;5006251;28;20197;-76
2022/09/14 08:55:29;;;;;;;2.92;0.70;;;;;22.30;100499.00;;;;5005404;28;20221;-76
2022/09/14 08:58:02;;;;;;;4.88;1.20;;;;;22.40;100498.00;;;;5003404;28;20232;-76
2022/09/14 09:00:39;;;;;;;2.33;1.13;;;;;22.40;100495.00;;;;5008002;28;20213;-77
2022/09/14 09:03:42;;;;;;;3.63;1.10;;;;;22.30;100486.00;;;;5009260;28;20197;-77
2022/09/14 09:06:17;;;;;;;1.65;0.80;;;;;22.40;100479.00;;;;4999684;28;20228;-77
2022/09/14 09:08:55;;;;;;;3.45;0.90;;;;;22.40;100471.00;;;;5009067;28;20223;-77
2022/09/14 09:11:26;;;;;;;2.45;0.60;;;;;22.50;100492.00;;;;5005599;28;20189;-77
2022/09/14 09:13:54;;;;;;;2.63;0.85;;;;;22.50;100492.00;;;;5007086;28;20197;-77
2022/09/14 09:16:24;;;;;;;1.55;0.93;;;;;22.50;100495.00;;;;5003572;28;20666;-77
2022/09/14 09:18:57;;;;;;;3.05;1.10;;;;;22.50;100488.00;;;;5004898;28;20205;-78
2022/09/14 09:21:30;;;;;;;2.75;0.90;;;;;22.50;100495.00;;;;5006258;28;20197;-77
2022/09/14 09:24:14;;;;;;;2.80;0.80;;;;;22.50;100506.00;;;;5006571;28;20197;-77
2022/09/14 09:26:42;;;;;;;2.78;1.10;;;;;22.60;100507.00;;;;5008312;28;20803;-77
2022/09/14 09:29:11;;;;;;;1.98;1.10;;;;;22.60;100504.00;;;;5008877;28;20209;-77
2022/09/14 09:31:43;;;;;;;2.72;1.02;;;;;22.60;100505.00;;;;5006873;28;20197;-77
2022/09/14 09:34:13;;;;;;;2.05;1.10;;;;;22.60;100505.00;;;;5006896;28;20258;-77
2022/09/14 09:36:44;;;;;;;1.95;0.80;;;;;22.70;100507.00;;;;5012741;28;20192;-77
2022/09/14 09:39:12;;;;;;;3.80;1.25;;;;;22.70;100501.00;;;;5005596;28;20204;-77
2022/09/14 09:41:46;;;;;;;3.10;1.15;;;;;22.70;100496.00;;;;5006021;28;20196;-77
2022/09/14 09:44:13;;;;;;;2.05;1.40;;;;;22.80;100507.00;;;;5006042;28;20204;-77
2022/09/14 09:46:47;;;;;;;3.00;1.40;;;;;22.80;100502.00;;;;5006084;28;20222;-78
2022/09/14 09:49:22;;;;;;;4.93;1.23;;;;;22.80;100497.00;;;;5006991;28;20662;-78
2022/09/14 09:51:50;;;;;;;1.17;1.08;;;;;22.90;100498.00;;;;5003521;28;20204;-78
2022/09/14 09:54:27;;;;;;;3.15;1.30;;;;;22.90;100497.00;;;;5009021;28;20204;-76
2022/09/14 09:56:57;;;;;;;2.80;1.42;;;;;23.00;100493.00;;;;5007009;28;21148;-77
2022/09/14 09:59:30;;;;;;;4.43;1.38;;;;;23.00;100495.00;;;;5007602;28;20283;-76
2022/09/14 10:02:13;;;;;;;3.80;1.02;;;;;23.10;100495.00;;;;5006855;28;20197;-77
2022/09/14 10:04:57;;;;;;;4.57;1.05;;;;;23.10;100508.00;;;;4990339;28;20590;-76
2022/09/14 10:07:25;;;;;;;2.20;1.00;;;;;23.20;100504.00;;;;5009813;28;20224;-76
2022/09/14 10:10:04;;;;;;;3.05;0.98;;;;;23.10;100502.00;;;;5005901;28;20204;-76
2022/09/14 10:12:32;;;;;;;1.30;0.75;;;;;23.30;100498.00;;;;5008056;28;20199;-77
2022/09/14 10:15:20;;;;;;;4.57;0.80;;;;;23.20;100493.00;;;;5007930;28;20777;-76
2022/09/14 10:18:08;;;;;;;3.42;0.65;;;;;23.20;100495.00;;;;5005341;28;20664;-76
2022/09/14 10:20:38;;;;;;;3.38;0.90;;;;;23.30;100488.00;;;;5005694;28;21428;-77
2022/09/14 10:23:24;;;;;;;3.88;1.17;;;;;23.30;100493.00;;;;5004929;28;20201;-77
2022/09/14 10:26:15;;;;;;;6.40;1.33;;;;;23.40;100488.00;;;;5005925;28;20220;-78
2022/09/14 10:28:44;;;;;;;3.83;1.00;;;;;23.40;100493.00;;;;5007168;28;20220;-78
2022/09/14 10:31:21;;;;;;;4.10;0.80;;;;;23.40;100491.00;;;;5007855;28;20579;-78
2022/09/14 10:33:52;;;;;;;5.88;0.88;;;;;23.40;100492.00;;;;4998620;28;20204;-77
2022/09/14 10:36:26;;;;;;;2.85;1.00;;;;;23.40;100489.00;;;;5007270;28;20207;-77
2022/09/14 10:38:57;;;;;;;2.25;0.98;;;;;23.40;100489.00;;;;5000394;28;20274;-77
2022/09/14 10:41:30;;;;;;;1.50;0.82;;;;;23.40;100480.00;;;;5001644;28;20670;-77
2022/09/14 10:44:27;;;;;;;2.42;0.70;;;;;23.30;100484.00;;;;5007898;28;20271;-77
2022/09/14 10:47:11;;;;;;;2.42;0.65;;;;;23.40;100482.00;;;;4985948;28;20225;-77
2022/09/14 10:49:50;;;;;;;1.70;0.80;;;;;23.40;100476.00;;;;5001125;28;20569;-77
2022/09/14 10:52:26;;;;;;;3.47;0.98;;;;;23.40;100476.00;;;;5007595;28;20205;-78
2022/09/14 10:55:22;;;;;;;2.10;0.73;;;;;23.40;100482.00;;;;5005998;28;20216;-78
2022/09/14 10:57:56;;;;;;;2.38;0.88;;;;;23.50;100486.00;;;;4993723;28;20607;-78
2022/09/14 11:00:24;;;;;;;2.10;0.73;;;;;23.50;100485.00;;;;5004918;28;20189;-78
2022/09/14 11:03:13;;;;;;;1.27;0.73;;;;;23.50;100482.00;;;;5007026;28;20219;-77
2022/09/14 11:05:46;;;;;;;3.05;1.13;;;;;23.60;100479.00;;;;5004200;28;20193;-77
2022/09/14 11:08:24;;;;;;;3.53;0.70;;;;;23.50;100492.00;;;;5009458;28;20220;-77
2022/09/14 11:11:09;;;;;;;3.03;0.75;;;;;23.60;100490.00;;;;5013613;28;20200;-77
2022/09/14 11:13:52;;;;;;;3.33;0.75;;;;;23.60;100489.00;;;;5006294;28;20197;-78
2022/09/14 11:16:46;;;;;;;3.08;0.90;;;;;23.60;100497.00;;;;5007930;28;20638;-78
2022/09/14 11:19:24;;;;;;;2.80;0.88;;;;;23.80;100501.00;;;;5007686;28;20203;-78
2022/09/14 11:21:57;;;;;;;4.00;0.95;;;;;23.80;100498.00;;;;5006642;28;20682;-78
2022/09/14 11:24:32;;;;;;;1.42;0.60;;;;;23.80;100497.00;;;;5008757;28;20201;-78
2022/09/14 11:27:04;;;;;;;1.30;0.68;;;;;23.90;100497.00;;;;5008494;28;20235;-78
2022/09/14 11:29:36;;;;;;;2.08;0.60;;;;;23.90;100496.00;;;;5008448;28;20201;-78
2022/09/14 11:32:10;;;;;;;1.55;0.73;;;;;23.90;100497.00;;;;5002165;28;20208;-79
2022/09/14 11:34:41;;;;;;;1.35;0.95;;;;;24.00;100497.00;;;;5009051;28;20197;-78
2022/09/14 11:37:12;;;;;;;2.95;0.80;;;;;24.00;100499.00;;;;5007886;28;20201;-78
2022/09/14 11:39:44;;;;;;;1.05;0.68;;;;;24.00;100499.00;;;;5008843;28;20205;-78
2022/09/14 11:42:18;;;;;;;1.35;1.10;;;;;24.00;100493.00;;;;5003287;28;20200;-77
2022/09/14 11:44:46;;;;;;;2.42;0.75;;;;;24.00;100492.00;;;;5006693;28;20232;-78
2022/09/14 11:47:16;;;;;;;3.30;1.02;;;;;24.00;100488.00;;;;5004345;28;20216;-78
2022/09/14 11:49:55;;;;;;;2.65;1.35;;;;;24.00;100483.00;;;;4999512;28;20612;-78
2022/09/14 11:52:24;;;;;;;3.47;1.05;;;;;24.10;100486.00;;;;5008740;28;20228;-77
2022/09/14 11:54:54;;;;;;;1.98;1.08;;;;;24.10;100477.00;;;;5007140;28;20209;-80
2022/09/14 11:57:23;;;;;;;1.85;0.93;;;;;24.10;100482.00;;;;5004079;28;20225;-79
2022/09/14 11:59:52;;;;;;;4.05;0.90;;;;;24.10;100476.00;;;;5005412;28;20240;-79
2022/09/14 12:03:11;;;;;;;2.05;0.80;;;;;24.00;100469.00;;;;5008397;28;20208;-79
2022/09/14 12:05:40;;;;;;;3.72;1.20;;;;;24.10;100470.00;;;;4997263;28;20197;-79
2022/09/14 12:08:38;;;;;;;2.03;1.00;;;;;24.00;100473.00;;;;5002700;28;20237;-79
2022/09/14 12:11:27;;;;;;;3.40;1.20;;;;;24.10;100467.00;;;;5015008;28;20287;-77
2022/09/14 12:14:35;;;;;;;3.40;0.82;;;;;24.10;100464.00;;;;5009913;28;20201;-78
2022/09/14 12:17:26;;;;;;;2.92;1.00;;;;;24.20;100473.00;;;;5015309;28;20208;-77
2022/09/14 12:20:31;;;;;;;4.50;0.98;;;;;24.20;100473.00;;;;5015523;28;20200;-78
2022/09/14 12:23:18;;;;;;;3.22;0.80;;;;;24.20;100463.00;;;;5015737;28;20197;-78
2022/09/14 12:26:21;;;;;;;2.47;0.70;;;;;24.30;100470.00;;;;4998957;28;20197;-78
2022/09/14 12:28:51;;;;;;;1.33;0.88;;;;;24.40;100461.00;;;;4990494;28;20205;-77
2022/09/14 12:31:58;;;;;;;2.85;1.10;;;;;24.40;100463.00;;;;5014709;28;20201;-79
2022/09/14 12:34:29;;;;;;;2.72;0.88;;;;;24.50;100464.00;;;;5015923;28;20572;-78
2022/09/14 12:36:59;;;;;;;1.45;0.80;;;;;24.60;100465.00;;;;5015473;28;20193;-78